Florence, Vermont
Current Conditions -  °F | °C
As of 10:35 AM on Saturday 25 Oct 2014 (Local Time) from KRUT Reporting Station
Clear Clear  
Wind Chill:   Ceiling: Unl
Heat Index:   Visibility: 10mi
Dew Point:   Wind: 3mph
Humidity: 82%   Direction: 140°SE
Pressure: 29.76"   Gusts: NA
Location:  43.72°N, 73.06°W
Report Text: KRUT 251435Z 14003KT 10SM CLR 09/06 A2976 RMK AO1
Loading
Personal Weather Stations






























Interactive Weather Map
Tropical Storm Tracking
New forecast layout! Learn more

10-Day Weather Forecast

Advertisements
Track Severe Weather on mobile